Time;durP1;ratioP1;P1;durP2;ratioP2;P2;SDS_P1;SDS_P2;PMS_P1;PMS_P2;Temp;Humidity;BMP_temperature;BMP_pressure;BME280_temperature;BME280_humidity;BME280_pressure;Samples;Min_cycle;Max_cycle;Signal;HPM_P1;HPM_P2
2023/06/23 00:03:33;;;;;;;2.67;1.40;;;26.70;58.10;;;;;;10540050;28;20043;-38
2023/06/23 00:08:38;;;;;;;2.97;1.50;;;26.80;57.80;;;;;;10537657;28;20060;-37
2023/06/23 00:13:41;;;;;;;4.88;2.45;;;26.60;58.40;;;;;;10537841;28;20143;-30
2023/06/23 00:18:43;;;;;;;2.83;1.70;;;26.80;57.90;;;;;;10534987;28;20047;-32
2023/06/23 00:23:45;;;;;;;3.92;1.70;;;26.90;58.20;;;;;;10532778;28;20051;-32
2023/06/23 00:28:49;;;;;;;2.75;1.58;;;26.90;57.80;;;;;;10536861;28;20048;-31
2023/06/23 00:33:51;;;;;;;3.15;1.88;;;26.90;57.60;;;;;;10537072;28;20048;-31
2023/06/23 00:38:52;;;;;;;3.28;2.17;;;26.90;57.50;;;;;;10536114;28;20079;-31
2023/06/23 00:43:59;;;;;;;7.15;4.68;;;26.80;57.80;;;;;;10535931;28;20131;-31
2023/06/23 00:49:01;;;;;;;5.15;2.85;;;26.50;59.30;;;;;;10534444;28;20073;-28
2023/06/23 00:54:04;;;;;;;2.85;1.80;;;26.50;60.00;;;;;;10533669;28;20055;-32
2023/06/23 00:59:08;;;;;;;4.28;2.08;;;26.80;58.10;;;;;;10530749;28;20044;-30
2023/06/23 01:04:09;;;;;;;2.50;1.80;;;26.50;59.00;;;;;;10531763;28;20809;-37
2023/06/23 01:09:20;;;;;;;3.72;1.90;;;26.90;58.20;;;;;;10538451;28;20481;-32
2023/06/23 01:14:30;;;;;;;4.82;3.35;;;26.90;58.20;;;;;;10526829;28;20105;-32
2023/06/23 01:19:53;;;;;;;3.45;2.05;;;26.70;58.30;;;;;;10526859;28;20724;-31
2023/06/23 01:25:07;;;;;;;4.50;2.80;;;26.50;58.90;;;;;;10531538;28;20059;-31
2023/06/23 01:30:14;;;;;;;3.50;2.78;;;26.20;59.60;;;;;;10535621;28;20124;-31
2023/06/23 01:35:23;;;;;;;4.85;3.45;;;26.10;60.10;;;;;;10531361;28;20044;-31
2023/06/23 01:40:27;;;;;;;3.55;2.15;;;26.20;59.70;;;;;;10528173;28;20130;-36
2023/06/23 01:45:31;;;;;;;3.97;2.03;;;26.10;60.20;;;;;;10533835;28;20040;-30
2023/06/23 01:50:34;;;;;;;3.35;2.25;;;26.40;59.40;;;;;;10533828;28;20090;-31
2023/06/23 01:55:39;;;;;;;3.92;3.25;;;26.30;59.40;;;;;;10533082;28;20547;-32
2023/06/23 02:00:43;;;;;;;8.05;5.10;;;25.80;60.90;;;;;;10540898;28;20114;-36
2023/06/23 02:05:46;;;;;;;2.20;1.88;;;25.80;61.30;;;;;;10532923;28;20472;-36
2023/06/23 02:10:48;;;;;;;2.67;1.90;;;25.90;61.30;;;;;;10531900;28;20127;-30
2023/06/23 02:15:53;;;;;;;3.42;1.75;;;26.40;59.60;;;;;;10537467;28;20051;-32
2023/06/23 02:20:56;;;;;;;2.42;1.55;;;26.40;59.40;;;;;;10532857;28;20083;-30
2023/06/23 02:25:59;;;;;;;3.13;1.63;;;26.60;59.00;;;;;;10532512;28;20156;-34
2023/06/23 02:31:04;;;;;;;2.05;1.58;;;26.60;58.80;;;;;;10536599;28;20052;-31
2023/06/23 02:36:09;;;;;;;2.30;1.45;;;26.50;59.00;;;;;;10539135;28;20092;-31
2023/06/23 02:41:13;;;;;;;1.50;1.25;;;26.50;59.00;;;;;;10531792;28;20070;-34
2023/06/23 02:46:19;;;;;;;2.05;1.73;;;26.60;58.80;;;;;;10532098;28;20051;-33
2023/06/23 02:51:25;;;;;;;1.40;1.25;;;26.60;58.80;;;;;;10531811;28;20075;-29
2023/06/23 02:56:30;;;;;;;2.10;1.48;;;26.60;58.60;;;;;;10531713;28;20083;-30
2023/06/23 03:15:32;;;;;;;1.35;1.25;;;26.30;58.80;;;;;;10565454;27;20112;-31
2023/06/23 03:20:37;;;;;;;1.65;1.25;;;26.50;59.10;;;;;;10573081;28;20060;-33
2023/06/23 03:25:41;;;;;;;1.88;1.20;;;26.50;58.90;;;;;;10568786;28;20139;-32
2023/06/23 03:30:48;;;;;;;1.73;1.23;;;26.50;58.80;;;;;;10568070;28;20056;-31
2023/06/23 03:35:51;;;;;;;1.70;1.50;;;26.50;58.90;;;;;;10565740;28;20052;-31
2023/06/23 03:40:58;;;;;;;2.35;1.42;;;26.50;59.10;;;;;;10567358;28;20071;-31
2023/06/23 03:46:06;;;;;;;2.80;1.45;;;26.10;59.90;;;;;;10565851;28;20503;-30
2023/06/23 03:51:11;;;;;;;1.60;1.30;;;26.30;59.50;;;;;;10566346;28;20484;-31
2023/06/23 03:56:15;;;;;;;1.38;1.23;;;26.20;59.70;;;;;;10568616;28;20464;-31
2023/06/23 04:01:22;;;;;;;2.38;1.30;;;26.30;59.40;;;;;;10566006;28;20080;-31
2023/06/23 04:06:26;;;;;;;2.85;1.42;;;26.30;59.40;;;;;;10564073;28;20044;-34
2023/06/23 04:11:29;;;;;;;9.02;3.58;;;26.30;59.40;;;;;;10571995;28;20143;-31
2023/06/23 04:16:35;;;;;;;3.50;2.17;;;26.10;59.30;;;;;;10565469;28;20098;-30
2023/06/23 04:21:39;;;;;;;2.83;1.70;;;26.00;60.20;;;;;;10565598;28;20126;-31
2023/06/23 04:26:45;;;;;;;4.18;2.20;;;26.20;60.00;;;;;;10529830;28;20071;-30
2023/06/23 04:31:52;;;;;;;3.33;2.22;;;26.40;59.60;;;;;;10537764;28;20155;-31
2023/06/23 04:37:03;;;;;;;6.50;3.33;;;26.60;59.60;;;;;;10535536;28;20563;-31
2023/06/23 04:42:10;;;;;;;4.53;2.80;;;26.60;59.50;;;;;;10529378;28;20094;-31
2023/06/23 04:47:17;;;;;;;5.65;3.25;;;26.50;59.90;;;;;;10531803;28;20109;-31
2023/06/23 04:52:21;;;;;;;6.68;3.30;;;26.60;59.80;;;;;;10536765;28;20075;-35
2023/06/23 04:57:29;;;;;;;6.20;3.40;;;26.70;59.70;;;;;;10536818;28;20078;-31
2023/06/23 05:02:35;;;;;;;7.22;3.90;;;26.70;59.80;;;;;;10536881;28;20079;-31
2023/06/23 05:07:38;;;;;;;6.10;4.18;;;26.70;60.10;;;;;;10534690;28;20044;-32
2023/06/23 05:12:43;;;;;;;5.72;3.42;;;26.60;60.40;;;;;;10534184;28;20432;-32
2023/06/23 05:17:49;;;;;;;4.07;2.95;;;26.60;60.20;;;;;;10532950;28;20090;-32
2023/06/23 05:22:52;;;;;;;3.22;2.80;;;26.70;60.40;;;;;;10540164;28;20679;-33
2023/06/23 05:27:59;;;;;;;3.85;2.85;;;26.70;60.90;;;;;;10534088;28;20701;-34
2023/06/23 05:33:07;;;;;;;5.43;2.67;;;26.60;60.40;;;;;;10533738;28;20048;-31
2023/06/23 05:38:11;;;;;;;4.80;2.60;;;26.60;60.80;;;;;;10528524;28;20047;-32
2023/06/23 05:43:13;;;;;;;3.53;2.50;;;26.00;62.80;;;;;;10530008;28;20124;-31
2023/06/23 05:48:32;;;;;;;3.08;2.33;;;26.50;60.70;;;;;;10536961;28;20566;-34
2023/06/23 05:53:37;;;;;;;4.60;2.20;;;26.60;60.70;;;;;;10532041;28;20131;-36
2023/06/23 05:58:42;;;;;;;3.15;1.88;;;26.70;60.60;;;;;;10528810;28;20596;-34
2023/06/23 06:03:48;;;;;;;2.55;1.88;;;26.70;60.50;;;;;;10528846;28;20044;-32
2023/06/23 06:08:52;;;;;;;3.67;1.63;;;26.70;60.30;;;;;;10524298;28;20060;-35
2023/06/23 06:13:56;;;;;;;1.92;1.67;;;26.80;60.30;;;;;;10534295;28;20147;-38
2023/06/23 06:19:01;;;;;;;1.90;1.58;;;26.80;60.50;;;;;;10531290;28;20101;-33
2023/06/23 06:24:06;;;;;;;1.52;1.20;;;26.80;60.10;;;;;;10531294;28;20482;-38
2023/06/23 06:29:10;;;;;;;2.08;1.48;;;26.90;60.00;;;;;;10530955;28;20067;-33
2023/06/23 06:34:16;;;;;;;4.03;1.40;;;26.90;59.90;;;;;;10531320;28;20056;-35
2023/06/23 06:39:19;;;;;;;2.55;1.83;;;26.90;59.70;;;;;;10527193;28;20124;-30
2023/06/23 06:44:21;;;;;;;1.55;1.20;;;26.80;60.20;;;;;;10530398;28;20421;-33
2023/06/23 06:49:26;;;;;;;2.35;1.45;;;26.80;60.00;;;;;;10530699;28;20074;-30
2023/06/23 06:54:28;;;;;;;2.92;1.50;;;26.80;60.00;;;;;;10528627;28;20490;-31
2023/06/23 06:59:30;;;;;;;1.50;1.10;;;26.70;59.80;;;;;;10528468;28;20075;-31
2023/06/23 07:04:34;;;;;;;3.85;2.72;;;26.30;61.00;;;;;;10528242;28;20097;-30
2023/06/23 07:09:35;;;;;;;2.10;1.08;;;24.30;71.00;;;;;;10526366;28;20044;-38
2023/06/23 07:14:37;;;;;;;3.78;2.75;;;24.40;70.00;;;;;;10528371;28;20166;-33
2023/06/23 07:19:41;;;;;;;2.58;1.73;;;25.60;65.40;;;;;;10532394;28;20135;-33
2023/06/23 07:24:42;;;;;;;2.20;1.50;;;26.00;63.50;;;;;;10529576;28;20131;-32
2023/06/23 07:29:44;;;;;;;1.58;1.20;;;25.90;63.70;;;;;;10529507;28;20078;-35
2023/06/23 07:34:47;;;;;;;1.63;1.30;;;26.40;61.20;;;;;;10527501;28;20055;-32
2023/06/23 07:39:49;;;;;;;3.28;1.73;;;26.60;60.50;;;;;;10516844;28;20512;-31
2023/06/23 07:44:51;;;;;;;2.03;1.50;;;25.90;63.50;;;;;;10525820;28;20443;-32
2023/06/23 07:49:54;;;;;;;2.50;1.92;;;26.20;61.90;;;;;;10521781;28;20048;-31
2023/06/23 07:54:56;;;;;;;2.55;2.00;;;26.20;61.80;;;;;;10528832;28;20493;-34
2023/06/23 07:59:58;;;;;;;4.55;1.83;;;25.90;62.80;;;;;;10529042;28;20043;-33
2023/06/23 08:05:03;;;;;;;1.58;1.42;;;25.80;63.10;;;;;;10536424;28;20075;-31
2023/06/23 08:10:05;;;;;;;3.83;1.77;;;25.90;62.80;;;;;;10537432;28;20545;-34
2023/06/23 08:15:08;;;;;;;3.35;1.90;;;26.60;60.70;;;;;;10535559;28;20079;-34
2023/06/23 08:20:12;;;;;;;4.32;2.50;;;26.70;59.90;;;;;;10541661;28;20483;-33
2023/06/23 08:25:14;;;;;;;1.65;1.52;;;26.50;60.30;;;;;;10534893;28;20056;-35
2023/06/23 08:30:26;;;;;;;4.00;1.80;;;26.80;59.80;;;;;;10535827;28;20075;-34
2023/06/23 08:35:29;;;;;;;;;;;26.80;59.60;;;;;;10537965;28;20407;-34
2023/06/23 08:40:31;;;;;;;3.03;1.90;;;26.90;59.30;;;;;;10536640;28;20455;-34
2023/06/23 08:45:34;;;;;;;5.07;2.50;;;27.10;59.10;;;;;;10516628;28;20123;-33
2023/06/23 08:50:38;;;;;;;4.22;2.42;;;27.10;59.00;;;;;;10535275;28;20097;-31
2023/06/23 08:55:40;;;;;;;3.47;2.40;;;27.10;59.20;;;;;;10534516;28;20152;-38
2023/06/23 09:00:42;;;;;;;4.78;2.10;;;26.70;59.80;;;;;;10526992;28;20449;-37
2023/06/23 09:05:45;;;;;;;2.50;2.30;;;27.10;59.00;;;;;;10536482;28;20048;-32
2023/06/23 09:10:47;;;;;;;3.70;2.40;;;26.90;59.50;;;;;;10531105;28;20060;-35
2023/06/23 09:15:50;;;;;;;5.07;3.95;;;27.10;59.10;;;;;;10534926;28;20488;-33
2023/06/23 09:20:54;;;;;;;3.10;2.80;;;26.80;59.80;;;;;;10527927;28;20043;-33
2023/06/23 09:25:55;;;;;;;3.30;2.90;;;26.60;60.90;;;;;;10512332;28;20071;-30
2023/06/23 09:30:59;;;;;;;6.82;4.70;;;26.90;60.30;;;;;;10528226;28;20049;-34
2023/06/23 09:36:06;;;;;;;5.93;4.30;;;26.10;62.90;;;;;;10531629;28;20095;-30
2023/06/23 09:41:09;;;;;;;2.85;2.53;;;25.80;63.60;;;;;;10530365;28;20090;-34
2023/06/23 09:46:13;;;;;;;5.07;3.10;;;26.70;60.70;;;;;;10529857;28;20157;-32
2023/06/23 09:51:18;;;;;;;4.57;3.17;;;26.60;60.90;;;;;;10530682;28;20506;-31
2023/06/23 09:56:22;;;;;;;3.55;3.03;;;26.50;60.90;;;;;;10534353;28;20394;-33
2023/06/23 10:01:23;;;;;;;11.40;5.80;;;27.20;59.10;;;;;;10528539;28;20070;-31
2023/06/23 10:06:28;;;;;;;4.82;2.80;;;25.70;59.00;;;;;;10531139;28;20066;-31
2023/06/23 10:11:32;;;;;;;3.45;2.97;;;26.50;61.40;;;;;;10537615;28;20072;-33
2023/06/23 10:16:35;;;;;;;4.20;3.13;;;26.10;62.50;;;;;;10529695;28;20083;-31
2023/06/23 10:21:40;;;;;;;4.13;3.33;;;26.30;62.30;;;;;;10540112;28;20090;-32
2023/06/23 10:26:45;;;;;;;3.10;2.75;;;26.50;60.90;;;;;;10530893;28;20076;-37
2023/06/23 10:31:51;;;;;;;3.85;3.28;;;26.50;61.30;;;;;;10529584;28;20052;-32
2023/06/23 10:36:57;;;;;;;3.97;2.80;;;25.90;63.10;;;;;;10528802;28;20048;-36
2023/06/23 10:42:00;;;;;;;4.15;2.53;;;25.70;63.50;;;;;;10537350;28;20039;-36
2023/06/23 10:47:02;;;;;;;4.43;3.25;;;26.00;63.50;;;;;;10528280;28;20048;-37
2023/06/23 10:52:07;;;;;;;3.00;2.72;;;25.50;61.90;;;;;;10528312;28;20056;-34
2023/06/23 10:57:09;;;;;;;3.38;2.95;;;25.90;56.20;;;;;;10529562;28;20089;-34
2023/06/23 11:02:18;;;;;;;3.28;2.97;;;25.00;65.60;;;;;;10530200;28;20051;-34
2023/06/23 11:07:21;;;;;;;3.95;3.17;;;25.10;61.70;;;;;;10529905;28;20453;-40
2023/06/23 11:12:30;;;;;;;3.63;2.42;;;24.80;67.80;;;;;;10530122;28;20143;-37
2023/06/23 11:17:40;;;;;;;2.45;2.05;;;26.10;62.70;;;;;;10530512;28;20040;-33
2023/06/23 11:22:54;;;;;;;2.80;2.25;;;26.30;60.90;;;;;;10532213;28;20639;-35
2023/06/23 11:28:39;;;;;;;3.40;2.63;;;26.00;62.80;;;;;;10528058;28;20051;-33
2023/06/23 11:33:42;;;;;;;3.70;2.40;;;25.80;60.20;;;;;;10517159;28;20136;-34
2023/06/23 11:38:46;;;;;;;2.70;2.40;;;25.90;59.50;;;;;;10544098;28;20094;-33
2023/06/23 11:43:48;;;;;;;3.13;2.83;;;26.70;58.90;;;;;;10537931;28;20044;-34
2023/06/23 11:48:50;;;;;;;3.50;2.00;;;26.00;58.90;;;;;;10543775;28;20538;-36
2023/06/23 11:53:55;;;;;;;3.50;2.60;;;25.80;61.60;;;;;;10538333;28;20040;-34
2023/06/23 11:58:56;;;;;;;2.35;2.00;;;26.40;57.10;;;;;;10538729;28;20052;-38
2023/06/23 12:03:58;;;;;;;2.83;2.10;;;26.20;61.20;;;;;;10536552;28;20043;-33
2023/06/23 12:09:02;;;;;;;6.85;3.38;;;26.50;59.50;;;;;;10536142;28;20072;-32
2023/06/23 12:14:04;;;;;;;3.20;2.22;;;26.40;57.00;;;;;;10528378;28;20105;-31
2023/06/23 12:19:06;;;;;;;2.53;2.22;;;26.70;59.20;;;;;;10531813;28;20089;-33
2023/06/23 12:24:11;;;;;;;2.15;1.92;;;26.90;58.10;;;;;;10532521;28;20051;-31
2023/06/23 12:29:12;;;;;;;2.05;1.70;;;26.90;59.50;;;;;;10534207;28;20632;-38
2023/06/23 12:34:14;;;;;;;2.30;2.10;;;27.50;58.30;;;;;;10526337;28;20143;-34
2023/06/23 12:39:22;;;;;;;1.85;1.75;;;27.50;58.00;;;;;;10530288;28;20055;-34
2023/06/23 12:44:25;;;;;;;3.45;2.28;;;27.40;59.00;;;;;;10532427;28;20127;-37
2023/06/23 12:49:32;;;;;;;2.13;1.75;;;27.70;58.60;;;;;;10533374;28;20105;-37
2023/06/23 12:54:35;;;;;;;3.25;2.20;;;28.10;57.80;;;;;;10535522;28;20059;-33
2023/06/23 12:59:37;;;;;;;2.38;2.05;;;27.40;58.80;;;;;;10541380;28;20071;-33
2023/06/23 13:04:39;;;;;;;2.30;2.10;;;28.00;57.60;;;;;;10532876;28;20556;-35
2023/06/23 13:09:42;;;;;;;2.28;2.08;;;27.50;59.00;;;;;;10532921;28;20097;-36
2023/06/23 13:14:44;;;;;;;5.03;2.58;;;28.40;56.70;;;;;;10535436;28;20083;-33
2023/06/23 13:19:46;;;;;;;3.63;2.00;;;28.20;55.80;;;;;;10530448;28;20072;-33
2023/06/23 13:24:49;;;;;;;9.13;2.90;;;28.50;56.50;;;;;;10541392;28;20048;-38
2023/06/23 13:29:51;;;;;;;3.28;2.55;;;28.00;56.10;;;;;;10533962;28;20054;-34
2023/06/23 13:34:53;;;;;;;4.80;2.70;;;28.40;56.90;;;;;;10528668;28;20139;-33
2023/06/23 13:39:57;;;;;;;3.67;2.35;;;28.40;54.90;;;;;;10538385;28;20131;-31
2023/06/23 13:44:58;;;;;;;3.33;2.38;;;28.30;57.00;;;;;;10531438;28;20093;-32
2023/06/23 13:50:00;;;;;;;2.15;1.65;;;28.60;55.50;;;;;;10540216;28;20054;-32
2023/06/23 13:55:05;;;;;;;3.80;2.78;;;29.10;56.80;;;;;;10529464;28;20059;-32
2023/06/23 14:00:09;;;;;;;3.25;2.20;;;28.10;56.20;;;;;;10528772;28;20450;-31
2023/06/23 14:05:14;;;;;;;1.88;1.65;;;28.90;56.30;;;;;;10530313;28;20044;-33
2023/06/23 14:10:17;;;;;;;2.55;2.33;;;28.90;56.70;;;;;;10535939;28;20093;-29
2023/06/23 14:15:19;;;;;;;1.77;1.60;;;28.90;54.30;;;;;;10531044;28;20142;-31
2023/06/23 14:20:21;;;;;;;2.42;1.55;;;29.30;56.90;;;;;;10528321;28;20044;-31
2023/06/23 14:25:24;;;;;;;4.32;2.05;;;29.90;55.90;;;;;;10527033;28;20147;-35
2023/06/23 14:30:26;;;;;;;1.60;1.50;;;30.30;55.20;;;;;;10529801;28;20052;-32
2023/06/23 14:35:27;;;;;;;3.03;2.42;;;30.20;55.30;;;;;;10526592;28;20075;-39
2023/06/23 14:40:30;;;;;;;3.13;1.85;;;30.30;53.20;;;;;;10529548;28;20078;-33
2023/06/23 14:45:34;;;;;;;2.33;2.00;;;30.60;55.80;;;;;;10495161;28;20058;-31
2023/06/23 14:50:36;;;;;;;2.00;1.80;;;31.00;55.50;;;;;;10498511;28;20472;-32
2023/06/23 14:55:39;;;;;;;3.53;1.65;;;31.20;53.70;;;;;;10481622;28;20453;-31
2023/06/23 15:00:41;;;;;;;2.50;1.92;;;31.70;52.20;;;;;;10497801;28;20040;-33
2023/06/23 15:05:43;;;;;;;1.48;1.38;;;31.40;54.40;;;;;;10486204;28;20113;-35
2023/06/23 15:10:46;;;;;;;3.83;1.75;;;31.70;53.90;;;;;;10491700;28;20131;-31
2023/06/23 15:15:49;;;;;;;2.40;1.48;;;32.20;49.60;;;;;;10498595;28;20042;-29
2023/06/23 15:20:51;;;;;;;1.20;1.10;;;32.20;52.80;;;;;;10489561;28;20049;-33
2023/06/23 15:25:54;;;;;;;2.05;1.65;;;32.70;52.10;;;;;;10496212;28;20561;-34
2023/06/23 15:30:57;;;;;;;2.00;1.20;;;32.70;52.10;;;;;;10494298;28;20045;-35
2023/06/23 15:35:59;;;;;;;3.58;2.03;;;32.70;53.90;;;;;;10514507;28;20052;-33
2023/06/23 15:41:04;;;;;;;2.72;1.92;;;32.80;50.10;;;;;;10497844;28;20051;-32
2023/06/23 15:46:06;;;;;;;1.77;1.50;;;33.20;49.30;;;;;;10530686;28;20126;-32
2023/06/23 15:51:08;;;;;;;1.90;1.42;;;33.10;47.40;;;;;;10526255;28;20155;-31
2023/06/23 15:56:11;;;;;;;2.90;1.60;;;33.10;52.80;;;;;;10524383;28;20059;-37
2023/06/23 16:01:14;;;;;;;2.72;1.30;;;33.60;51.50;;;;;;10527767;28;20137;-32
2023/06/23 16:06:15;;;;;;;2.17;1.05;;;33.50;50.90;;;;;;10526866;28;20052;-31
2023/06/23 16:11:18;;;;;;;2.20;1.60;;;33.30;53.70;;;;;;10534034;28;20052;-32
2023/06/23 16:16:21;;;;;;;2.08;1.60;;;34.10;52.20;;;;;;10526901;28;20146;-31
2023/06/23 16:21:22;;;;;;;1.48;1.20;;;33.90;50.20;;;;;;10530207;28;20071;-33
2023/06/23 16:26:25;;;;;;;3.05;1.17;;;33.90;49.70;;;;;;10535426;28;20092;-32
2023/06/23 16:31:29;;;;;;;1.10;1.00;;;34.30;51.40;;;;;;10536487;28;20151;-31
2023/06/23 16:36:31;;;;;;;3.58;1.50;;;34.30;53.70;;;;;;10534120;28;20420;-34
2023/06/23 16:41:35;;;;;;;1.88;1.10;;;34.50;51.40;;;;;;10529077;28;20476;-32
2023/06/23 16:46:36;;;;;;;3.33;1.00;;;34.70;51.60;;;;;;10533829;28;20067;-30
2023/06/23 16:51:38;;;;;;;2.15;0.90;;;34.70;52.90;;;;;;10532621;28;20048;-32
2023/06/23 16:56:42;;;;;;;1.45;1.33;;;35.20;53.50;;;;;;10540237;28;20083;-29
2023/06/23 17:01:43;;;;;;;3.53;1.30;;;34.80;53.80;;;;;;10528672;28;20048;-34
2023/06/23 17:06:45;;;;;;;2.38;1.60;;;35.90;51.50;;;;;;10531169;28;20139;-34
2023/06/23 17:11:49;;;;;;;1.63;1.08;;;35.20;56.60;;;;;;10533068;28;20133;-33
2023/06/23 17:16:51;;;;;;;0.95;0.77;;;35.30;53.00;;;;;;10531160;28;20135;-33
2023/06/23 17:21:52;;;;;;;1.77;1.02;;;35.00;54.10;;;;;;10532451;28;20139;-32
2023/06/23 17:26:55;;;;;;;0.90;0.90;;;35.00;56.20;;;;;;10533535;28;20131;-34
2023/06/23 17:31:57;;;;;;;1.42;1.15;;;35.60;52.60;;;;;;10533388;28;20484;-34
2023/06/23 17:36:59;;;;;;;1.75;1.20;;;35.20;55.00;;;;;;10532802;28;20719;-33
2023/06/23 17:42:04;;;;;;;1.17;1.02;;;36.10;56.40;;;;;;10533291;28;20043;-32
2023/06/23 17:47:09;;;;;;;0.80;0.80;;;36.00;54.40;;;;;;10533766;28;20043;-34
2023/06/23 17:52:11;;;;;;;1.77;1.00;;;35.60;54.20;;;;;;10532974;28;20044;-31
2023/06/23 17:57:14;;;;;;;3.22;1.27;;;35.50;54.00;;;;;;10535228;28;20056;-33
2023/06/23 18:02:19;;;;;;;1.20;1.00;;;35.10;53.50;;;;;;10531981;28;20048;-32
2023/06/23 18:07:21;;;;;;;1.73;0.98;;;35.80;53.40;;;;;;10537743;28;20105;-33
2023/06/23 18:12:24;;;;;;;2.60;1.17;;;36.10;53.40;;;;;;10530627;28;20528;-34
2023/06/23 18:17:26;;;;;;;1.73;1.27;;;35.80;54.70;;;;;;10533808;28;20142;-35
2023/06/23 18:22:28;;;;;;;2.60;1.30;;;35.50;54.20;;;;;;10528704;28;20075;-33
2023/06/23 18:27:31;;;;;;;2.05;1.20;;;35.50;54.60;;;;;;10530050;28;20139;-31
2023/06/23 18:32:43;;;;;;;1.27;1.10;;;35.60;54.60;;;;;;10532606;28;20148;-32
2023/06/23 18:37:45;;;;;;;0.88;0.80;;;35.70;54.60;;;;;;10526606;28;20533;-32
2023/06/23 18:42:48;;;;;;;1.63;1.00;;;35.60;54.20;;;;;;10524480;28;20044;-32
2023/06/23 18:47:50;;;;;;;2.40;1.00;;;35.40;53.90;;;;;;10527570;28;20082;-31
2023/06/23 18:52:52;;;;;;;3.45;1.10;;;35.20;53.80;;;;;;10525454;28;20136;-35
2023/06/23 18:57:55;;;;;;;1.48;1.13;;;35.10;54.40;;;;;;10521220;28;20048;-33
2023/06/23 19:02:57;;;;;;;1.33;1.10;;;35.00;54.50;;;;;;10531370;28;20075;-37
2023/06/23 19:07:59;;;;;;;1.08;0.93;;;35.00;55.40;;;;;;10527254;28;20063;-34
2023/06/23 19:13:02;;;;;;;1.52;1.00;;;35.10;55.00;;;;;;10528078;28;20073;-32
2023/06/23 19:18:04;;;;;;;3.20;0.90;;;34.80;53.80;;;;;;10527821;28;20044;-33
2023/06/23 19:23:06;;;;;;;1.10;0.90;;;34.40;53.20;;;;;;10530373;28;20101;-32
2023/06/23 19:28:09;;;;;;;1.50;1.20;;;34.20;52.70;;;;;;10517489;28;20097;-36
2023/06/23 19:33:11;;;;;;;1.70;1.02;;;34.10;52.80;;;;;;10524655;28;20157;-33
2023/06/23 19:38:13;;;;;;;2.67;1.90;;;34.00;52.50;;;;;;10523510;28;20146;-34
2023/06/23 19:43:16;;;;;;;3.42;1.10;;;33.90;52.60;;;;;;10524433;28;20131;-37
2023/06/23 19:48:18;;;;;;;6.22;1.45;;;33.80;52.70;;;;;;10518391;28;20131;-33
2023/06/23 19:53:20;;;;;;;1.58;1.33;;;33.70;52.80;;;;;;10522534;28;20440;-32
2023/06/23 19:58:23;;;;;;;1.95;1.30;;;33.50;52.20;;;;;;10521620;28;20048;-36
2023/06/23 20:03:25;;;;;;;2.50;1.40;;;33.40;52.40;;;;;;10529049;28;20164;-31
2023/06/23 20:08:27;;;;;;;1.73;1.50;;;33.20;52.40;;;;;;10529819;28;20048;-33
2023/06/23 20:13:30;;;;;;;3.20;1.95;;;32.80;52.60;;;;;;10532879;28;20531;-36
2023/06/23 20:18:32;;;;;;;2.20;1.05;;;32.70;52.70;;;;;;10529600;28;20047;-34
2023/06/23 20:23:37;;;;;;;2.72;1.60;;;32.50;52.20;;;;;;10531828;28;20127;-34
2023/06/23 20:28:40;;;;;;;2.65;1.20;;;32.00;51.80;;;;;;10522310;28;20127;-31
2023/06/23 20:33:42;;;;;;;1.67;1.30;;;32.40;52.30;;;;;;10524847;28;20040;-37
2023/06/23 20:38:44;;;;;;;2.45;1.30;;;31.90;53.00;;;;;;10531569;28;20127;-35
2023/06/23 20:43:47;;;;;;;4.18;1.33;;;32.20;52.30;;;;;;10528605;28;20063;-33
2023/06/23 20:48:49;;;;;;;3.13;0.98;;;32.20;52.00;;;;;;10521754;28;21041;-34
2023/06/23 20:53:51;;;;;;;3.08;1.02;;;32.00;51.90;;;;;;10523653;28;20654;-33
2023/06/23 20:58:55;;;;;;;1.80;1.10;;;32.00;51.80;;;;;;10515276;28;20142;-34
2023/06/23 21:03:56;;;;;;;1.30;1.02;;;31.90;51.80;;;;;;10527298;28;20083;-38
2023/06/23 21:08:58;;;;;;;3.20;0.85;;;31.80;51.80;;;;;;10527206;28;20077;-34
2023/06/23 21:14:01;;;;;;;2.55;1.45;;;31.90;51.90;;;;;;10531615;28;20052;-32
2023/06/23 21:19:03;;;;;;;1.23;1.10;;;31.80;52.10;;;;;;10528804;28;20087;-38
2023/06/23 21:24:06;;;;;;;1.30;0.98;;;31.70;52.00;;;;;;10531920;28;20051;-38
2023/06/23 21:29:09;;;;;;;1.20;0.98;;;31.70;52.10;;;;;;10524095;28;20048;-31
2023/06/23 21:34:11;;;;;;;2.55;1.20;;;31.60;52.10;;;;;;10511402;28;20202;-34
2023/06/23 21:39:13;;;;;;;1.30;1.15;;;31.50;52.10;;;;;;10528157;28;20469;-32
2023/06/23 21:44:16;;;;;;;1.63;1.02;;;31.50;52.20;;;;;;10514422;28;20146;-28
2023/06/23 21:49:18;;;;;;;1.48;1.00;;;31.40;52.20;;;;;;10522148;28;20044;-34
2023/06/23 21:54:20;;;;;;;2.15;0.90;;;31.40;52.20;;;;;;10529211;28;20127;-34
2023/06/23 21:59:23;;;;;;;6.47;1.20;;;31.30;52.40;;;;;;10528380;28;20059;-33
2023/06/23 22:04:25;;;;;;;2.72;0.95;;;31.20;52.30;;;;;;10520635;28;20052;-31
2023/06/23 22:09:27;;;;;;;1.75;1.15;;;31.10;52.40;;;;;;10529204;28;20126;-37
2023/06/23 22:14:30;;;;;;;1.92;1.00;;;31.00;52.30;;;;;;10515581;28;20075;-31
2023/06/23 22:19:32;;;;;;;1.17;1.00;;;31.00;52.40;;;;;;10517166;28;20838;-32
2023/06/23 22:24:34;;;;;;;1.73;1.10;;;30.90;52.40;;;;;;10523750;28;20048;-31
2023/06/23 22:29:37;;;;;;;1.38;1.00;;;30.90;52.40;;;;;;10506900;28;20085;-33
2023/06/23 22:34:39;;;;;;;1.92;1.05;;;30.90;52.40;;;;;;10509549;28;20115;-34
2023/06/23 22:39:41;;;;;;;0.98;0.85;;;30.80;52.40;;;;;;10521242;28;20053;-34
2023/06/23 22:44:45;;;;;;;2.17;1.33;;;30.40;52.70;;;;;;10497225;28;20079;-32
2023/06/23 22:49:47;;;;;;;1.52;0.80;;;30.60;51.90;;;;;;10498285;28;20060;-35
2023/06/23 22:54:49;;;;;;;2.55;1.30;;;30.40;52.60;;;;;;10516179;28;20151;-29
2023/06/23 22:59:52;;;;;;;1.98;1.20;;;30.20;52.60;;;;;;10512088;28;20512;-32
2023/06/23 23:04:54;;;;;;;1.35;0.98;;;29.90;53.10;;;;;;10505419;28;20076;-32
2023/06/23 23:09:59;;;;;;;2.47;1.35;;;30.10;52.60;;;;;;10511585;28;20048;-35
2023/06/23 23:15:02;;;;;;;1.25;0.80;;;29.80;49.80;;;;;;10506263;28;20079;-29
2023/06/23 23:20:05;;;;;;;1.55;1.15;;;29.80;53.00;;;;;;10516175;28;20151;-31
2023/06/23 23:25:08;;;;;;;2.33;1.08;;;29.90;52.60;;;;;;10516007;28;20036;-33
2023/06/23 23:30:12;;;;;;;1.13;0.73;;;29.70;52.70;;;;;;10519351;28;20095;-32
2023/06/23 23:35:14;;;;;;;1.25;1.00;;;29.90;52.30;;;;;;10531268;28;20494;-33
2023/06/23 23:40:16;;;;;;;1.98;1.25;;;30.00;52.20;;;;;;10532809;28;20298;-31
2023/06/23 23:45:19;;;;;;;1.05;0.90;;;30.00;52.20;;;;;;10530192;28;20131;-34
2023/06/23 23:50:21;;;;;;;1.63;1.15;;;29.90;52.20;;;;;;10528656;28;20097;-38
2023/06/23 23:55:23;;;;;;;1.20;1.00;;;29.90;52.30;;;;;;10531161;28;20079;-38
